Time;durP1;ratioP1;P1;durP2;ratioP2;P2;SDS_P1;SDS_P2;PMS_P1;PMS_P2;Temp;Humidity;BMP_temperature;BMP_pressure;BME280_temperature;BME280_humidity;BME280_pressure;Samples;Min_cycle;Max_cycle;Signal;HPM_P1;HPM_P2
2023/03/15 00:00:35;;;;;;;6.07;1.47;;;5.40;99.90;;;;;;7812305;28;20190;-91
2023/03/15 00:04:20;;;;;;;7.83;1.67;;;5.40;99.90;;;;;;7782114;28;20203;-91
2023/03/15 00:08:06;;;;;;;7.83;2.00;;;5.30;99.90;;;;;;7789483;28;20186;-91
2023/03/15 00:11:55;;;;;;;16.17;2.20;;;5.40;99.90;;;;;;7804109;28;20182;-90
2023/03/15 00:15:49;;;;;;;6.90;1.70;;;5.30;99.90;;;;;;7802871;28;20211;-90
2023/03/15 00:19:34;;;;;;;6.20;1.63;;;5.20;99.90;;;;;;7818023;28;20206;-91
2023/03/15 00:23:20;;;;;;;6.23;1.70;;;5.00;99.90;;;;;;7822566;28;20214;-91
2023/03/15 00:27:06;;;;;;;4.20;1.90;;;4.70;99.90;;;;;;7789339;28;20183;-90
2023/03/15 00:31:21;;;;;;;7.40;1.77;;;4.80;99.90;;;;;;7803179;28;20194;-91
2023/03/15 00:35:11;;;;;;;4.73;1.47;;;4.90;99.90;;;;;;7805381;28;20207;-90
2023/03/15 00:38:57;;;;;;;9.57;2.00;;;4.90;99.90;;;;;;7784366;28;20214;-91
2023/03/15 00:42:49;;;;;;;6.20;1.50;;;4.90;99.90;;;;;;7788616;28;20206;-90
2023/03/15 00:46:34;;;;;;;9.63;1.50;;;4.90;99.90;;;;;;7800525;28;20278;-91
2023/03/15 00:50:21;;;;;;;5.37;1.60;;;5.00;99.90;;;;;;7796444;28;20187;-91
2023/03/15 00:54:12;;;;;;;7.67;1.40;;;5.20;99.90;;;;;;7805239;28;20209;-90
2023/03/15 00:57:58;;;;;;;9.97;1.70;;;5.20;99.90;;;;;;7805386;28;20643;-91
2023/03/15 01:01:43;;;;;;;4.87;1.33;;;5.20;99.90;;;;;;7841448;28;20174;-91
2023/03/15 01:05:30;;;;;;;9.67;1.77;;;5.20;99.90;;;;;;7807662;28;20226;-91
2023/03/15 01:09:15;;;;;;;9.57;2.90;;;5.20;99.90;;;;;;7795624;28;20191;-90
2023/03/15 01:13:01;;;;;;;6.47;1.20;;;5.20;99.90;;;;;;7798234;28;20707;-90
2023/03/15 01:16:47;;;;;;;15.90;2.50;;;5.10;99.90;;;;;;7808475;28;20199;-91
2023/03/15 01:20:32;;;;;;;10.00;1.87;;;4.80;99.90;;;;;;7813471;28;20186;-90
2023/03/15 01:24:18;;;;;;;10.60;1.73;;;4.80;99.90;;;;;;7805984;28;20222;-90
2023/03/15 01:28:04;;;;;;;12.97;2.07;;;4.40;99.90;;;;;;7819431;28;20193;-91
2023/03/15 01:31:49;;;;;;;7.80;1.70;;;4.20;99.90;;;;;;7805080;28;20205;-90
2023/03/15 01:35:35;;;;;;;7.43;1.50;;;4.10;99.90;;;;;;7783513;28;20211;-91
2023/03/15 01:39:20;;;;;;;2.80;1.20;;;4.00;99.90;;;;;;7805171;28;20389;-90
2023/03/15 01:43:06;;;;;;;6.47;1.37;;;4.10;99.90;;;;;;7799096;28;20199;-90
2023/03/15 01:46:52;;;;;;;4.90;1.47;;;3.90;99.90;;;;;;7806792;28;20197;-90
2023/03/15 01:50:37;;;;;;;9.33;1.73;;;3.80;99.90;;;;;;7807899;28;20214;-91
2023/03/15 01:54:28;;;;;;;11.87;1.63;;;4.00;99.90;;;;;;7796996;28;20249;-90
2023/03/15 01:58:14;;;;;;;8.70;1.53;;;3.90;99.90;;;;;;7819895;28;20577;-90
2023/03/15 02:02:02;;;;;;;5.73;1.37;;;4.10;99.90;;;;;;7791043;28;20230;-90
2023/03/15 02:05:56;;;;;;;7.67;1.80;;;4.30;99.90;;;;;;7781246;28;20211;-91
2023/03/15 02:10:00;;;;;;;4.53;1.40;;;4.40;99.90;;;;;;7805871;28;20189;-90
2023/03/15 02:13:48;;;;;;;8.37;2.10;;;4.30;99.90;;;;;;7810854;28;20194;-91
2023/03/15 02:17:40;;;;;;;9.53;1.73;;;4.40;99.90;;;;;;7811014;28;20198;-91
2023/03/15 02:21:25;;;;;;;7.83;1.67;;;4.50;99.90;;;;;;7803302;28;20287;-91
2023/03/15 02:25:25;;;;;;;5.47;2.07;;;4.40;99.90;;;;;;7796069;28;20226;-91
2023/03/15 02:29:11;;;;;;;8.23;1.53;;;4.30;99.90;;;;;;7794705;28;20744;-91
2023/03/15 02:37:44;;;;;;;8.07;1.43;;;4.20;99.90;;;;;;7792202;28;20199;-90
2023/03/15 02:41:35;;;;;;;7.37;1.60;;;4.20;99.90;;;;;;7793916;28;20195;-90
2023/03/15 02:45:22;;;;;;;13.60;1.60;;;4.20;99.90;;;;;;7795899;28;20209;-90
2023/03/15 02:49:09;;;;;;;5.37;1.40;;;4.10;99.90;;;;;;7798304;28;20673;-90
2023/03/15 02:52:55;;;;;;;9.27;1.83;;;4.10;99.90;;;;;;7782146;28;20248;-90
2023/03/15 02:56:41;;;;;;;6.57;2.10;;;3.80;99.90;;;;;;7817121;28;20266;-90
2023/03/15 03:00:27;;;;;;;7.57;1.60;;;3.70;99.90;;;;;;7819396;28;20250;-90
2023/03/15 03:04:13;;;;;;;6.07;1.90;;;3.60;99.90;;;;;;7790970;28;20295;-90
2023/03/15 03:08:01;;;;;;;4.73;1.30;;;3.70;99.90;;;;;;7804193;28;20190;-91
2023/03/15 03:11:47;;;;;;;4.57;1.50;;;3.80;99.90;;;;;;7812483;28;20187;-91
2023/03/15 03:15:44;;;;;;;7.60;1.60;;;3.70;99.90;;;;;;7789540;28;20205;-90
2023/03/15 03:19:29;;;;;;;7.60;1.87;;;3.60;99.90;;;;;;7807427;28;20270;-91
2023/03/15 03:23:15;;;;;;;7.73;1.97;;;3.60;99.90;;;;;;7749483;28;1156400;-90
2023/03/15 03:27:01;;;;;;;6.70;1.77;;;3.60;99.90;;;;;;7810914;28;20191;-90
2023/03/15 03:30:46;;;;;;;5.10;1.47;;;3.80;99.90;;;;;;7782158;28;20187;-91
2023/03/15 03:34:32;;;;;;;8.27;1.87;;;3.80;99.90;;;;;;7801980;28;20214;-90
2023/03/15 03:38:18;;;;;;;9.50;1.53;;;3.80;99.90;;;;;;7793335;28;20230;-91
2023/03/15 03:42:04;;;;;;;8.10;1.50;;;3.80;99.90;;;;;;7809480;28;20190;-90
2023/03/15 03:45:49;;;;;;;10.60;1.90;;;3.70;99.90;;;;;;7808612;28;20202;-90
2023/03/15 03:49:35;;;;;;;4.63;1.83;;;3.60;99.90;;;;;;7811891;28;20187;-90
2023/03/15 03:53:21;;;;;;;8.83;3.27;;;3.60;99.90;;;;;;7777559;28;20203;-91
2023/03/15 03:57:07;;;;;;;13.20;3.40;;;3.40;99.90;;;;;;7787276;28;20210;-90
2023/03/15 04:00:55;;;;;;;12.43;2.63;;;3.30;99.90;;;;;;7799563;28;20175;-90
2023/03/15 04:04:40;;;;;;;8.47;2.73;;;3.20;99.90;;;;;;7794051;28;20195;-90
2023/03/15 04:08:26;;;;;;;7.80;2.47;;;3.40;99.90;;;;;;7810145;28;20174;-91
2023/03/15 04:12:12;;;;;;;9.47;2.10;;;3.00;99.90;;;;;;7806432;28;20198;-90
2023/03/15 04:16:00;;;;;;;6.93;1.77;;;2.80;99.90;;;;;;7782531;28;20696;-90
2023/03/15 04:19:45;;;;;;;5.07;1.70;;;2.80;99.90;;;;;;7806766;28;20190;-90
2023/03/15 04:23:33;;;;;;;7.30;2.00;;;2.80;99.90;;;;;;7800367;28;20738;-90
2023/03/15 04:27:18;;;;;;;10.37;1.90;;;2.80;99.90;;;;;;7792464;28;20194;-90
2023/03/15 04:31:09;;;;;;;6.63;1.70;;;2.80;99.90;;;;;;7777421;28;20187;-90
2023/03/15 04:34:54;;;;;;;9.20;1.80;;;2.70;99.90;;;;;;7792872;28;20211;-91
2023/03/15 04:38:40;;;;;;;12.70;2.00;;;2.70;99.90;;;;;;7818099;28;20210;-90
2023/03/15 04:42:26;;;;;;;7.87;1.37;;;2.60;99.90;;;;;;7801898;28;20190;-91
2023/03/15 04:46:11;;;;;;;4.17;1.50;;;2.60;99.90;;;;;;7783444;28;20214;-91
2023/03/15 04:49:57;;;;;;;7.43;1.50;;;2.50;99.90;;;;;;7809427;28;20218;-90
2023/03/15 04:53:42;;;;;;;9.33;1.87;;;2.70;99.90;;;;;;7858553;28;20210;-89
2023/03/15 04:57:28;;;;;;;12.93;2.87;;;2.60;99.90;;;;;;7788470;28;20218;-90
2023/03/15 05:01:14;;;;;;;9.97;1.70;;;2.50;99.90;;;;;;7791186;28;20217;-90
2023/03/15 05:05:17;;;;;;;8.30;1.70;;;2.60;99.90;;;;;;7802540;28;20211;-90
2023/03/15 05:09:03;;;;;;;8.20;1.77;;;2.60;99.90;;;;;;7780045;28;20206;-90
2023/03/15 05:12:49;;;;;;;8.43;1.40;;;2.50;99.90;;;;;;7793739;28;20198;-90
2023/03/15 05:16:34;;;;;;;10.60;2.17;;;2.40;99.90;;;;;;7804241;28;20263;-90
2023/03/15 05:20:24;;;;;;;6.03;1.50;;;2.20;99.90;;;;;;7791389;28;20183;-89
2023/03/15 05:24:09;;;;;;;5.37;1.40;;;2.30;99.90;;;;;;7786356;28;20223;-91
2023/03/15 05:27:55;;;;;;;7.00;1.70;;;2.10;99.90;;;;;;7792005;28;20190;-83
2023/03/15 05:31:43;;;;;;;6.33;1.97;;;2.20;99.90;;;;;;7795419;28;20560;-90
2023/03/15 05:35:28;;;;;;;8.97;1.80;;;2.00;99.90;;;;;;7814923;28;20202;-91
2023/03/15 05:39:15;;;;;;;7.23;1.43;;;2.00;99.90;;;;;;7790790;28;20214;-90
2023/03/15 05:43:01;;;;;;;6.50;1.50;;;1.90;99.90;;;;;;7802822;28;20731;-90
2023/03/15 05:46:46;;;;;;;3.73;1.20;;;2.10;99.90;;;;;;7787596;28;20557;-90
2023/03/15 05:50:32;;;;;;;8.33;1.83;;;2.10;99.90;;;;;;7785433;28;20222;-89
2023/03/15 05:54:34;;;;;;;7.47;1.60;;;2.00;99.90;;;;;;7796557;28;20580;-91
2023/03/15 05:58:20;;;;;;;7.27;2.00;;;2.10;99.90;;;;;;7802576;28;20203;-91
2023/03/15 06:02:05;;;;;;;6.17;1.47;;;2.20;99.90;;;;;;7797520;28;20198;-91
2023/03/15 06:05:51;;;;;;;11.90;2.17;;;2.20;99.90;;;;;;7808536;28;20202;-90
2023/03/15 06:09:38;;;;;;;9.63;1.47;;;2.20;99.90;;;;;;7795859;28;20187;-90
2023/03/15 06:13:23;;;;;;;7.07;1.83;;;2.20;99.90;;;;;;7795795;28;20211;-90
2023/03/15 06:17:11;;;;;;;4.63;1.53;;;2.20;99.90;;;;;;7811926;28;20264;-91
2023/03/15 06:21:01;;;;;;;9.87;1.73;;;2.20;99.90;;;;;;7798510;28;20191;-91
2023/03/15 06:24:46;;;;;;;4.93;1.37;;;2.30;99.90;;;;;;7821565;28;20226;-91
2023/03/15 06:28:32;;;;;;;10.83;2.17;;;2.30;99.90;;;;;;7816235;28;20241;-91
2023/03/15 06:32:17;;;;;;;6.97;2.23;;;2.40;99.90;;;;;;7810531;28;20277;-90
2023/03/15 06:36:04;;;;;;;4.33;1.77;;;2.30;99.90;;;;;;7795978;28;20261;-91
2023/03/15 06:39:53;;;;;;;11.47;2.10;;;2.30;99.90;;;;;;7780646;28;20661;-90
2023/03/15 06:43:39;;;;;;;9.87;1.80;;;2.30;99.90;;;;;;7779859;28;20569;-91
2023/03/15 06:47:24;;;;;;;7.27;2.33;;;2.30;99.90;;;;;;7794822;28;20178;-90
2023/03/15 06:51:10;;;;;;;8.10;1.73;;;2.40;99.90;;;;;;7824547;28;20198;-89
2023/03/15 06:54:55;;;;;;;9.43;2.00;;;2.50;99.90;;;;;;7841254;28;20206;-92
2023/03/15 06:58:41;;;;;;;12.77;2.00;;;2.50;99.90;;;;;;7811382;28;20264;-91
2023/03/15 07:02:27;;;;;;;10.23;1.97;;;2.50;99.90;;;;;;7817399;28;20191;-90
2023/03/15 07:06:12;;;;;;;9.93;1.90;;;2.60;99.90;;;;;;7795035;28;20286;-91
2023/03/15 07:09:58;;;;;;;8.37;2.57;;;2.60;99.90;;;;;;7778789;28;20641;-89
2023/03/15 07:13:44;;;;;;;8.03;2.07;;;2.70;99.90;;;;;;7777551;28;20210;-89
2023/03/15 07:17:29;;;;;;;7.20;2.00;;;2.60;99.90;;;;;;7778621;28;20716;-89
2023/03/15 07:21:15;;;;;;;10.23;2.20;;;2.60;99.90;;;;;;7779989;28;20184;-93
2023/03/15 07:25:01;;;;;;;8.87;2.17;;;2.80;99.90;;;;;;7782301;28;20269;-88
2023/03/15 07:28:47;;;;;;;10.90;2.00;;;2.70;99.90;;;;;;7809174;28;20218;-89
2023/03/15 07:32:32;;;;;;;7.40;2.10;;;2.80;99.90;;;;;;7794224;28;20195;-89
2023/03/15 07:36:18;;;;;;;4.47;1.50;;;3.00;99.90;;;;;;7794601;28;20211;-91
2023/03/15 07:40:08;;;;;;;7.63;2.23;;;3.00;99.90;;;;;;7794181;28;20287;-90
2023/03/15 07:43:54;;;;;;;7.07;1.50;;;3.00;99.90;;;;;;7790086;28;20190;-91
2023/03/15 07:47:39;;;;;;;16.03;2.30;;;3.00;99.90;;;;;;7808063;28;20637;-91
2023/03/15 07:51:25;;;;;;;7.77;1.90;;;3.20;99.90;;;;;;7779407;28;20290;-90
2023/03/15 07:55:11;;;;;;;8.47;2.30;;;3.20;99.90;;;;;;7803718;28;20213;-92
2023/03/15 07:58:56;;;;;;;8.03;2.00;;;3.20;99.90;;;;;;7804434;28;20194;-92
2023/03/15 08:02:45;;;;;;;9.40;1.97;;;3.20;99.90;;;;;;7778514;28;20187;-88
2023/03/15 08:06:31;;;;;;;15.73;3.33;;;3.30;99.90;;;;;;7793133;28;20190;-89
2023/03/15 08:10:17;;;;;;;7.03;2.00;;;3.40;99.90;;;;;;7796122;28;20811;-89
2023/03/15 08:14:03;;;;;;;12.10;1.77;;;3.40;99.90;;;;;;7792590;28;20281;-89
2023/03/15 08:17:49;;;;;;;12.40;2.23;;;3.60;99.90;;;;;;7806895;28;20259;-91
2023/03/15 08:21:34;;;;;;;14.27;2.60;;;3.70;99.90;;;;;;7793303;28;20179;-90
2023/03/15 08:25:23;;;;;;;3.97;2.00;;;3.80;99.90;;;;;;7783848;28;20207;-90
2023/03/15 08:29:08;;;;;;;10.00;2.47;;;4.00;99.90;;;;;;7807138;28;20178;-91
2023/03/15 08:33:33;;;;;;;5.83;1.67;;;4.00;99.90;;;;;;7807178;28;20236;-90
2023/03/15 08:37:19;;;;;;;8.77;1.40;;;4.10;99.90;;;;;;7808046;28;20234;-91
2023/03/15 08:41:05;;;;;;;6.57;1.60;;;4.10;99.90;;;;;;7807382;28;20175;-89
2023/03/15 08:44:51;;;;;;;11.20;2.53;;;4.10;99.90;;;;;;7807773;28;20248;-90
2023/03/15 08:48:36;;;;;;;7.97;2.27;;;4.00;99.90;;;;;;7817392;28;20210;-90
2023/03/15 08:52:22;;;;;;;10.87;2.77;;;4.00;99.90;;;;;;7801463;28;20198;-90
2023/03/15 08:56:08;;;;;;;7.37;2.50;;;4.20;99.90;;;;;;7792587;28;20260;-89
2023/03/15 08:59:54;;;;;;;11.53;4.23;;;4.30;99.90;;;;;;7777421;28;20180;-89
2023/03/15 09:03:41;;;;;;;26.17;9.27;;;4.20;99.90;;;;;;7801576;28;20194;-91
2023/03/15 09:07:27;;;;;;;17.10;6.37;;;4.20;99.90;;;;;;7806635;28;20178;-91
2023/03/15 09:11:12;;;;;;;18.77;6.40;;;4.10;99.90;;;;;;7791264;28;20194;-90
2023/03/15 09:14:58;;;;;;;19.20;7.17;;;3.90;99.90;;;;;;7776240;28;20261;-91
2023/03/15 09:18:44;;;;;;;40.80;15.10;;;3.70;99.90;;;;;;7776719;28;20302;-89
2023/03/15 09:22:29;;;;;;;17.77;8.20;;;3.50;99.90;;;;;;7801651;28;20178;-90
2023/03/15 09:26:15;;;;;;;6.97;3.50;;;3.40;99.90;;;;;;7807054;28;20717;-90
2023/03/15 09:30:01;;;;;;;5.87;2.57;;;3.40;99.90;;;;;;7807027;28;20186;-90
2023/03/15 09:33:47;;;;;;;9.30;5.53;;;3.20;99.90;;;;;;7810751;28;20210;-90
2023/03/15 09:37:33;;;;;;;5.57;2.07;;;3.40;99.90;;;;;;7780675;28;20308;-90
2023/03/15 09:41:41;;;;;;;9.53;3.50;;;3.30;99.90;;;;;;7782391;28;20214;-90
2023/03/15 09:45:54;;;;;;;10.53;2.30;;;3.30;99.90;;;;;;7805677;28;20657;-91
2023/03/15 09:49:50;;;;;;;5.93;1.70;;;3.30;99.90;;;;;;7814913;28;20571;-90
2023/03/15 09:53:42;;;;;;;12.20;2.33;;;3.30;99.90;;;;;;7819525;28;20851;-90
2023/03/15 09:57:38;;;;;;;7.30;1.93;;;3.20;99.90;;;;;;7813594;28;20203;-90
2023/03/15 10:01:37;;;;;;;11.70;2.33;;;3.40;99.90;;;;;;7812336;28;20174;-91
2023/03/15 10:05:33;;;;;;;8.93;2.53;;;3.40;99.90;;;;;;7797861;28;20264;-91
2023/03/15 10:09:28;;;;;;;9.13;2.13;;;3.50;99.90;;;;;;7782092;28;20205;-91
2023/03/15 10:13:52;;;;;;;11.90;2.10;;;3.40;99.90;;;;;;7781967;28;20213;-91
2023/03/15 10:17:56;;;;;;;8.03;2.30;;;3.40;99.90;;;;;;7781658;28;20619;-91
2023/03/15 10:22:11;;;;;;;12.67;2.40;;;3.40;99.90;;;;;;7781508;28;20211;-90
2023/03/15 10:25:57;;;;;;;7.67;2.57;;;3.30;99.90;;;;;;7801365;28;20684;-90
2023/03/15 10:29:49;;;;;;;7.97;3.40;;;3.40;99.90;;;;;;7810895;28;20558;-91
2023/03/15 10:33:37;;;;;;;20.70;7.67;;;3.50;99.90;;;;;;7810294;28;20236;-90
2023/03/15 10:37:24;;;;;;;14.30;5.20;;;3.50;99.90;;;;;;7796624;28;20241;-90
2023/03/15 10:41:13;;;;;;;6.87;2.77;;;3.60;99.90;;;;;;7793417;28;20556;-90
2023/03/15 10:45:21;;;;;;;12.37;2.97;;;3.50;99.90;;;;;;7830069;28;20219;-88
2023/03/15 10:49:11;;;;;;;9.97;3.40;;;3.60;99.90;;;;;;7817042;28;20187;-89
2023/03/15 10:52:59;;;;;;;13.60;2.80;;;3.50;99.90;;;;;;7796519;28;20195;-89
2023/03/15 10:56:50;;;;;;;9.73;3.00;;;3.30;99.90;;;;;;7795984;28;20569;-90
2023/03/15 11:00:36;;;;;;;5.73;3.27;;;3.30;99.90;;;;;;7796189;28;20175;-90
2023/03/15 11:04:26;;;;;;;8.47;2.97;;;3.20;99.90;;;;;;7781559;28;20210;-89
2023/03/15 11:08:17;;;;;;;7.27;3.23;;;3.30;99.90;;;;;;7803680;28;20190;-89
2023/03/15 11:12:09;;;;;;;5.60;2.80;;;3.30;99.90;;;;;;7798458;28;20204;-90
2023/03/15 11:16:13;;;;;;;6.70;2.50;;;3.20;99.90;;;;;;7806092;28;20221;-90
2023/03/15 11:20:22;;;;;;;12.00;2.90;;;3.20;99.90;;;;;;7796549;28;20182;-90
2023/03/15 11:24:22;;;;;;;4.97;2.83;;;3.40;99.90;;;;;;7794129;28;20210;-90
2023/03/15 11:28:26;;;;;;;11.60;3.10;;;3.40;99.90;;;;;;7808069;28;20242;-90
2023/03/15 11:32:17;;;;;;;7.37;2.80;;;3.50;99.90;;;;;;7805820;28;20189;-88
2023/03/15 11:36:07;;;;;;;10.73;3.10;;;3.60;99.90;;;;;;7781502;28;20203;-88
2023/03/15 11:40:06;;;;;;;8.90;2.67;;;3.70;99.90;;;;;;7789284;28;20236;-91
2023/03/15 11:44:09;;;;;;;9.97;3.30;;;3.70;99.90;;;;;;7785103;28;20198;-82
2023/03/15 11:48:03;;;;;;;5.83;2.43;;;3.70;99.90;;;;;;7793031;28;20182;-88
2023/03/15 11:51:48;;;;;;;8.20;3.27;;;3.70;99.90;;;;;;7807962;28;20605;-89
2023/03/15 11:55:36;;;;;;;5.87;2.30;;;3.60;99.90;;;;;;7802582;28;20275;-89
2023/03/15 11:59:31;;;;;;;8.60;2.90;;;3.70;99.90;;;;;;7793207;28;20203;-89
2023/03/15 12:03:33;;;;;;;8.30;2.47;;;3.70;99.90;;;;;;7796286;28;20308;-89
2023/03/15 12:07:21;;;;;;;7.70;2.17;;;3.80;99.90;;;;;;7803850;28;20600;-89
2023/03/15 12:11:28;;;;;;;5.70;1.97;;;3.80;99.90;;;;;;7796352;28;20215;-90
2023/03/15 12:15:36;;;;;;;4.53;2.10;;;3.80;99.90;;;;;;7793922;28;20202;-89
2023/03/15 12:19:33;;;;;;;9.83;2.13;;;3.80;99.90;;;;;;7795360;28;20213;-90
2023/03/15 12:23:29;;;;;;;6.90;2.00;;;4.00;99.90;;;;;;7807106;28;20263;-90
2023/03/15 12:27:20;;;;;;;5.23;1.80;;;4.10;99.90;;;;;;7790117;28;20191;-89
2023/03/15 12:31:12;;;;;;;4.67;2.13;;;4.10;99.90;;;;;;7801368;28;20725;-89
2023/03/15 12:35:07;;;;;;;4.13;1.87;;;4.20;99.90;;;;;;7797578;28;20202;-89
2023/03/15 12:38:59;;;;;;;9.30;3.27;;;4.20;99.90;;;;;;7800886;28;20289;-88
2023/03/15 12:42:56;;;;;;;4.30;2.63;;;4.20;99.90;;;;;;7828929;28;20202;-90
2023/03/15 12:46:41;;;;;;;6.60;2.57;;;4.10;99.90;;;;;;7802248;28;20174;-86
2023/03/15 12:50:42;;;;;;;7.23;2.40;;;4.20;99.90;;;;;;7809244;28;20186;-90
2023/03/15 12:54:43;;;;;;;8.17;3.80;;;4.30;99.90;;;;;;7805878;28;20236;-91
2023/03/15 12:58:35;;;;;;;6.83;3.07;;;4.30;99.90;;;;;;7800136;28;20680;-91
2023/03/15 13:02:31;;;;;;;9.97;2.53;;;4.30;99.90;;;;;;7800197;28;20178;-91
2023/03/15 13:06:20;;;;;;;6.63;2.80;;;4.30;99.90;;;;;;7804948;28;20224;-91
2023/03/15 13:10:24;;;;;;;7.97;2.80;;;4.30;99.90;;;;;;7808493;28;20178;-91
2023/03/15 13:14:15;;;;;;;6.00;2.80;;;4.30;99.90;;;;;;7817264;28;20291;-90
2023/03/15 13:18:16;;;;;;;3.17;2.30;;;4.40;99.90;;;;;;7811076;28;20638;-90
2023/03/15 13:22:27;;;;;;;6.30;2.60;;;4.40;99.90;;;;;;7811174;28;20183;-90
2023/03/15 13:26:37;;;;;;;7.37;2.70;;;4.40;99.90;;;;;;7808907;28;20213;-90
2023/03/15 13:30:36;;;;;;;5.63;2.50;;;4.40;99.90;;;;;;7793592;28;20266;-90
2023/03/15 13:34:23;;;;;;;7.60;2.80;;;4.50;99.90;;;;;;7796573;28;20199;-90
2023/03/15 13:38:23;;;;;;;6.27;2.43;;;4.40;99.90;;;;;;7780011;28;20577;-91
2023/03/15 13:42:22;;;;;;;7.27;2.50;;;4.60;99.90;;;;;;7798064;28;20618;-91
2023/03/15 13:46:08;;;;;;;3.70;2.50;;;4.70;99.90;;;;;;7812018;28;20191;-91
2023/03/15 13:49:55;;;;;;;4.13;2.27;;;4.90;99.90;;;;;;7812517;28;20179;-90
2023/03/15 13:53:41;;;;;;;5.93;2.23;;;5.00;99.90;;;;;;7806094;28;20191;-91
2023/03/15 13:57:28;;;;;;;4.17;2.23;;;5.20;99.90;;;;;;7798429;28;20206;-92
2023/03/15 14:01:15;;;;;;;5.13;2.60;;;5.30;99.90;;;;;;7792732;28;20314;-91
2023/03/15 14:05:11;;;;;;;6.87;2.20;;;5.40;99.90;;;;;;7798420;28;20687;-91
2023/03/15 14:09:07;;;;;;;6.60;3.50;;;5.50;99.90;;;;;;7803643;28;20642;-91
2023/03/15 14:12:54;;;;;;;6.57;3.23;;;5.50;99.90;;;;;;7810247;28;20210;-91
2023/03/15 14:16:42;;;;;;;6.50;2.53;;;5.30;99.90;;;;;;7809587;28;20234;-91
2023/03/15 14:20:39;;;;;;;5.60;2.70;;;5.20;99.90;;;;;;7807096;28;20265;-91
2023/03/15 14:24:37;;;;;;;5.67;2.67;;;5.00;99.90;;;;;;7799240;28;20644;-91
2023/03/15 14:28:23;;;;;;;9.37;2.53;;;5.00;99.90;;;;;;7793299;28;20186;-90
2023/03/15 14:32:28;;;;;;;3.97;2.60;;;4.80;99.90;;;;;;7810871;28;20274;-90
2023/03/15 14:36:29;;;;;;;5.83;4.03;;;4.70;99.90;;;;;;7802509;28;20257;-93
2023/03/15 14:40:28;;;;;;;8.07;3.30;;;4.70;99.90;;;;;;7841199;28;20567;-91
2023/03/15 14:44:14;;;;;;;7.13;2.80;;;4.60;99.90;;;;;;7802182;28;20245;-91
2023/03/15 14:48:27;;;;;;;4.40;2.30;;;4.60;99.90;;;;;;7822514;28;20242;-90
2023/03/15 14:52:14;;;;;;;2.10;1.73;;;4.70;99.90;;;;;;7798851;28;20183;-91
2023/03/15 14:55:59;;;;;;;4.73;2.00;;;4.70;99.90;;;;;;7787382;28;20685;-90
2023/03/15 14:59:45;;;;;;;2.97;2.00;;;4.70;99.90;;;;;;7789021;28;20633;-90
2023/03/15 15:03:31;;;;;;;3.47;2.20;;;4.70;99.90;;;;;;7805118;28;20195;-90
2023/03/15 15:07:19;;;;;;;2.10;1.50;;;4.80;99.90;;;;;;7808257;28;20182;-90
2023/03/15 15:11:07;;;;;;;3.07;1.90;;;5.00;99.90;;;;;;7802261;28;20182;-91
2023/03/15 15:14:53;;;;;;;5.40;2.10;;;5.30;99.90;;;;;;7792055;28;20297;-90
2023/03/15 15:18:38;;;;;;;6.60;2.40;;;5.20;99.90;;;;;;7788068;28;20195;-91
2023/03/15 15:22:24;;;;;;;3.87;1.90;;;5.20;99.90;;;;;;7791299;28;20179;-90
2023/03/15 15:26:18;;;;;;;3.77;1.77;;;5.30;99.90;;;;;;7800499;28;20222;-90
2023/03/15 15:30:04;;;;;;;6.47;2.73;;;5.10;99.90;;;;;;7790612;28;20274;-91
2023/03/15 15:33:53;;;;;;;11.13;6.03;;;5.20;99.90;;;;;;7800480;28;20301;-91
2023/03/15 15:37:40;;;;;;;7.10;4.13;;;5.20;99.90;;;;;;7791898;28;20665;-91
2023/03/15 15:41:31;;;;;;;18.40;10.93;;;5.20;99.90;;;;;;7790574;28;20266;-90
2023/03/15 15:45:17;;;;;;;6.67;3.57;;;5.10;99.90;;;;;;7805467;28;20644;-90
2023/03/15 15:49:03;;;;;;;4.33;2.40;;;5.00;99.90;;;;;;7797415;28;20197;-91
2023/03/15 15:52:51;;;;;;;5.80;3.10;;;5.00;99.90;;;;;;7800254;28;20178;-91
2023/03/15 15:56:42;;;;;;;5.13;2.93;;;4.90;99.90;;;;;;7791368;28;20221;-90
2023/03/15 16:00:29;;;;;;;4.13;2.70;;;4.90;99.90;;;;;;7800864;28;20691;-91
2023/03/15 16:04:15;;;;;;;3.67;2.50;;;5.00;99.90;;;;;;7793054;28;20572;-90
2023/03/15 16:08:03;;;;;;;4.37;2.77;;;4.90;99.90;;;;;;7796629;28;20182;-91
2023/03/15 16:11:49;;;;;;;4.63;3.20;;;5.00;99.90;;;;;;7801054;28;20189;-89
2023/03/15 16:15:34;;;;;;;7.67;4.47;;;4.80;99.90;;;;;;7787797;28;20245;-90
2023/03/15 16:19:20;;;;;;;7.80;5.37;;;4.70;99.90;;;;;;7796417;28;20707;-88
2023/03/15 16:23:09;;;;;;;4.73;3.30;;;4.90;99.90;;;;;;7798072;28;20238;-90
2023/03/15 16:27:00;;;;;;;9.90;5.87;;;4.80;99.90;;;;;;7798830;28;20194;-86
2023/03/15 16:30:45;;;;;;;5.77;4.10;;;4.80;99.90;;;;;;7807182;28;20187;-91
2023/03/15 16:34:33;;;;;;;5.97;3.13;;;5.20;99.90;;;;;;7813988;28;20199;-89
2023/03/15 16:38:24;;;;;;;7.20;3.97;;;5.60;99.90;;;;;;7834043;28;20218;-90
2023/03/15 16:42:15;;;;;;;10.37;5.17;;;5.80;99.90;;;;;;7808770;28;20187;-89
2023/03/15 16:46:01;;;;;;;7.93;5.07;;;5.90;99.90;;;;;;7799275;28;20217;-89
2023/03/15 16:50:01;;;;;;;9.97;5.60;;;6.10;99.90;;;;;;7794549;28;20222;-89
2023/03/15 16:53:46;;;;;;;8.43;4.77;;;6.10;99.90;;;;;;7802015;28;20198;-92
2023/03/15 16:57:59;;;;;;;14.80;4.70;;;6.20;99.90;;;;;;7807693;28;20213;-91
2023/03/15 17:01:46;;;;;;;18.20;11.40;;;6.10;99.60;;;;;;7806850;28;20190;-90
2023/03/15 17:05:56;;;;;;;16.53;9.63;;;6.00;99.90;;;;;;7805272;28;20203;-88
2023/03/15 17:10:16;;;;;;;11.70;4.70;;;6.00;99.90;;;;;;7787090;28;20187;-90
2023/03/15 17:14:13;;;;;;;6.10;4.10;;;6.00;99.90;;;;;;7787029;28;20238;-89
2023/03/15 17:18:36;;;;;;;7.70;5.30;;;6.00;99.90;;;;;;7802827;28;20284;-90
2023/03/15 17:22:24;;;;;;;9.47;5.20;;;6.00;99.90;;;;;;7798571;28;20640;-89
2023/03/15 17:26:16;;;;;;;8.63;4.90;;;6.00;99.90;;;;;;7789410;28;20246;-90
2023/03/15 17:30:13;;;;;;;13.17;5.10;;;6.00;99.90;;;;;;7815164;28;20208;-89
2023/03/15 17:34:05;;;;;;;14.17;7.97;;;6.00;99.90;;;;;;7799136;28;20212;-90
2023/03/15 17:37:56;;;;;;;7.47;4.40;;;6.00;99.90;;;;;;7806082;28;20203;-89
2023/03/15 17:41:50;;;;;;;6.40;3.03;;;6.00;99.90;;;;;;7791761;28;20215;-90
2023/03/15 17:45:48;;;;;;;4.70;2.40;;;5.90;99.90;;;;;;7805054;28;20285;-90
2023/03/15 17:49:41;;;;;;;6.87;2.77;;;5.90;99.90;;;;;;7799160;28;20197;-90
2023/03/15 17:53:27;;;;;;;11.20;6.80;;;5.80;99.90;;;;;;7787954;28;20203;-90
2023/03/15 17:57:12;;;;;;;8.03;5.70;;;5.70;99.90;;;;;;7802509;28;20343;-90
2023/03/15 18:01:18;;;;;;;6.33;4.13;;;5.70;99.90;;;;;;7802123;28;20662;-90
2023/03/15 18:05:15;;;;;;;5.97;4.20;;;5.60;99.90;;;;;;7803784;28;20687;-86
2023/03/15 18:09:05;;;;;;;61.53;29.37;;;5.60;99.90;;;;;;7808691;28;20186;-90
2023/03/15 18:13:12;;;;;;;55.30;26.57;;;5.50;99.90;;;;;;7811918;28;20194;-90
2023/03/15 18:16:59;;;;;;;17.87;11.57;;;5.40;99.90;;;;;;7807268;28;20199;-91
2023/03/15 18:20:48;;;;;;;9.00;4.83;;;5.20;99.90;;;;;;7799031;28;20206;-90
2023/03/15 18:24:34;;;;;;;11.20;5.37;;;5.20;99.90;;;;;;7803764;28;20273;-90
2023/03/15 18:28:20;;;;;;;7.93;5.03;;;5.20;99.90;;;;;;7789393;28;20215;-91
2023/03/15 18:32:25;;;;;;;59.77;28.23;;;5.20;99.90;;;;;;7820062;28;20187;-92
2023/03/15 18:36:30;;;;;;;152.13;60.87;;;5.20;99.90;;;;;;7794942;28;20199;-90
2023/03/15 18:40:29;;;;;;;148.73;58.70;;;5.20;99.90;;;;;;7810020;28;20794;-90
2023/03/15 18:44:18;;;;;;;45.03;24.40;;;5.10;99.90;;;;;;7810317;28;20233;-90
2023/03/15 18:48:19;;;;;;;21.73;12.47;;;5.10;99.90;;;;;;7799949;28;20179;-90
2023/03/15 18:52:13;;;;;;;15.17;9.77;;;5.10;99.90;;;;;;7791127;28;20261;-90
2023/03/15 18:56:25;;;;;;;10.87;5.17;;;5.00;99.90;;;;;;7790179;28;20202;-90
2023/03/15 19:00:16;;;;;;;18.97;8.33;;;5.00;99.90;;;;;;7803937;28;20187;-90
2023/03/15 19:04:07;;;;;;;29.83;11.93;;;5.00;99.90;;;;;;7805253;28;20203;-90
2023/03/15 19:08:05;;;;;;;28.77;11.73;;;5.00;99.90;;;;;;7795359;28;20171;-90
2023/03/15 19:12:00;;;;;;;15.03;8.57;;;4.80;99.90;;;;;;7808397;28;20182;-90
2023/03/15 19:15:46;;;;;;;7.03;4.87;;;4.90;99.90;;;;;;7795303;28;20286;-90
2023/03/15 19:20:10;;;;;;;7.77;5.07;;;4.80;99.90;;;;;;7802854;28;20226;-90
2023/03/15 19:24:35;;;;;;;5.10;3.90;;;4.80;99.90;;;;;;7806487;28;20218;-90
2023/03/15 19:28:21;;;;;;;7.30;3.40;;;4.70;99.90;;;;;;7794617;28;20274;-90
2023/03/15 19:32:06;;;;;;;5.10;3.40;;;4.70;99.90;;;;;;7805548;28;20829;-91
2023/03/15 19:35:52;;;;;;;5.53;3.50;;;4.60;99.90;;;;;;7805505;28;20728;-89
2023/03/15 19:40:08;;;;;;;6.80;3.57;;;4.60;99.90;;;;;;7803156;28;20199;-91
2023/03/15 19:43:54;;;;;;;5.87;2.97;;;4.50;99.90;;;;;;7777631;28;20281;-90
2023/03/15 19:48:07;;;;;;;6.30;2.73;;;4.50;99.90;;;;;;7791799;28;20186;-90
2023/03/15 19:51:53;;;;;;;4.10;2.20;;;4.40;99.90;;;;;;7785549;28;20329;-90
2023/03/15 19:55:39;;;;;;;4.73;2.57;;;4.40;99.90;;;;;;7802497;28;20203;-90
2023/03/15 19:59:38;;;;;;;7.00;3.27;;;4.30;99.90;;;;;;7790001;28;20200;-89
2023/03/15 20:03:24;;;;;;;7.40;3.43;;;4.30;99.90;;;;;;7779340;28;20210;-90
2023/03/15 20:07:11;;;;;;;6.43;3.53;;;4.30;99.90;;;;;;7778819;28;20266;-89
2023/03/15 20:11:03;;;;;;;6.53;3.60;;;4.20;99.90;;;;;;7814487;28;20179;-89
2023/03/15 20:14:48;;;;;;;8.77;3.40;;;4.20;99.90;;;;;;7780122;28;20339;-90
2023/03/15 20:18:34;;;;;;;9.27;4.07;;;4.20;99.90;;;;;;7809074;28;20203;-90